Time;durP1;ratioP1;P1;durP2;ratioP2;P2;SDS_P1;SDS_P2;PMS_P1;PMS_P2;Temp;Humidity;BMP_temperature;BMP_pressure;BME280_temperature;BME280_humidity;BME280_pressure;Samples;Min_cycle;Max_cycle;Signal;HPM_P1;HPM_P2
2022/09/18 00:00:47;;;;;;;10.38;2.53;;;9.10;99.90;;;;;;5016319;28;20132;-85
2022/09/18 00:03:14;;;;;;;13.98;2.72;;;9.00;99.90;;;;;;5000125;28;20145;-85
2022/09/18 00:05:41;;;;;;;12.77;2.55;;;8.90;99.90;;;;;;4999481;28;20532;-85
2022/09/18 00:08:07;;;;;;;10.20;2.60;;;8.90;99.90;;;;;;5015357;28;20049;-85
2022/09/18 00:10:42;;;;;;;10.25;2.58;;;8.80;99.90;;;;;;5015335;28;20049;-85
2022/09/18 00:13:08;;;;;;;11.63;3.15;;;8.80;99.90;;;;;;5016400;28;20050;-85
2022/09/18 00:15:34;;;;;;;11.02;2.40;;;8.90;99.90;;;;;;5015136;28;20038;-85
2022/09/18 00:18:00;;;;;;;9.32;2.42;;;8.90;99.90;;;;;;4999175;28;20053;-85
2022/09/18 00:20:25;;;;;;;11.10;2.92;;;9.10;99.90;;;;;;4999016;28;20057;-86
2022/09/18 00:22:51;;;;;;;14.77;3.10;;;8.80;99.90;;;;;;4982855;28;20481;-85
2022/09/18 00:25:17;;;;;;;12.57;2.90;;;9.00;99.90;;;;;;5015421;28;20129;-86
2022/09/18 00:27:42;;;;;;;11.00;2.65;;;9.50;99.90;;;;;;4982724;28;20185;-86
2022/09/18 00:30:09;;;;;;;10.77;2.42;;;8.90;99.90;;;;;;4999245;28;20042;-87
2022/09/18 00:32:37;;;;;;;11.38;2.42;;;9.00;99.90;;;;;;5014965;28;20374;-86
2022/09/18 00:35:03;;;;;;;11.32;2.28;;;9.00;99.90;;;;;;4998730;28;20062;-86
2022/09/18 00:37:28;;;;;;;10.88;2.75;;;9.10;99.90;;;;;;4998237;28;20370;-86
2022/09/18 00:39:54;;;;;;;11.95;2.70;;;9.10;99.90;;;;;;4982569;28;20042;-85
2022/09/18 00:42:20;;;;;;;11.55;2.25;;;9.10;99.90;;;;;;5014838;28;20046;-86
2022/09/18 00:44:47;;;;;;;12.50;2.90;;;9.30;99.90;;;;;;5015569;28;20053;-85
2022/09/18 00:47:37;;;;;;;8.90;1.95;;;9.20;99.90;;;;;;5014824;28;20495;-86
2022/09/18 00:50:11;;;;;;;11.90;2.45;;;9.20;99.90;;;;;;5014628;28;20041;-86
2022/09/18 00:52:53;;;;;;;14.10;2.95;;;9.10;99.90;;;;;;5015012;28;20045;-85
2022/09/18 00:55:25;;;;;;;13.05;2.63;;;9.10;99.90;;;;;;5014589;28;20045;-86
2022/09/18 00:57:55;;;;;;;14.15;2.53;;;9.10;99.90;;;;;;5016181;28;20124;-86
2022/09/18 01:00:21;;;;;;;12.57;2.55;;;9.60;99.90;;;;;;5014451;28;20045;-86
2022/09/18 01:02:47;;;;;;;11.55;2.28;;;9.10;99.90;;;;;;5014615;28;20405;-87
2022/09/18 01:05:26;;;;;;;11.13;2.55;;;9.10;99.90;;;;;;5014940;28;20068;-87
2022/09/18 01:07:54;;;;;;;10.13;2.53;;;9.20;99.90;;;;;;5014493;28;20519;-86
2022/09/18 01:10:32;;;;;;;12.27;2.38;;;9.20;99.90;;;;;;4997663;28;20042;-86
2022/09/18 01:13:08;;;;;;;12.05;2.10;;;9.20;99.90;;;;;;4998077;28;20432;-86
2022/09/18 01:16:05;;;;;;;10.35;1.90;;;9.10;99.90;;;;;;5015756;28;20046;-86
2022/09/18 01:18:37;;;;;;;14.00;2.28;;;9.10;99.90;;;;;;5014470;28;20068;-86
2022/09/18 01:21:03;;;;;;;11.50;1.98;;;9.00;99.90;;;;;;5014482;28;20432;-86
2022/09/18 01:24:17;;;;;;;15.85;2.58;;;8.90;99.90;;;;;;4998125;28;20104;-86
2022/09/18 01:26:55;;;;;;;11.30;2.53;;;8.90;99.90;;;;;;4961912;28;20055;-86
2022/09/18 01:29:52;;;;;;;8.88;2.40;;;8.80;99.90;;;;;;5014234;28;20046;-86
2022/09/18 01:32:24;;;;;;;17.17;2.08;;;8.80;99.90;;;;;;5014417;28;20045;-86
2022/09/18 01:35:02;;;;;;;10.68;2.15;;;8.70;99.90;;;;;;5013562;28;20062;-85
2022/09/18 01:37:43;;;;;;;10.80;2.38;;;8.70;99.90;;;;;;4998295;28;20104;-85
2022/09/18 01:40:15;;;;;;;12.05;2.40;;;8.80;99.90;;;;;;5014046;28;20470;-86
2022/09/18 01:42:43;;;;;;;11.30;2.35;;;8.70;99.90;;;;;;5014122;28;20109;-87
2022/09/18 01:45:11;;;;;;;15.65;2.92;;;9.10;99.90;;;;;;5015282;28;20054;-86
2022/09/18 01:47:45;;;;;;;10.73;2.60;;;8.70;99.90;;;;;;4998068;28;20053;-86
2022/09/18 01:50:15;;;;;;;15.95;3.13;;;8.70;99.90;;;;;;5014353;28;20050;-86
2022/09/18 01:52:51;;;;;;;12.25;2.58;;;9.30;99.90;;;;;;4997296;28;20050;-85
2022/09/18 01:55:22;;;;;;;13.40;2.58;;;8.80;99.90;;;;;;5013774;28;20616;-86
2022/09/18 01:57:57;;;;;;;5.82;1.88;;;8.90;99.90;;;;;;5013821;28;20046;-86
2022/09/18 02:00:24;;;;;;;9.25;1.95;;;8.90;99.90;;;;;;5013534;28;20133;-86
2022/09/18 02:03:01;;;;;;;10.18;2.08;;;8.90;99.90;;;;;;5013193;28;20556;-86
2022/09/18 02:05:30;;;;;;;12.55;2.40;;;9.00;99.90;;;;;;5013640;28;20067;-86
2022/09/18 02:08:03;;;;;;;13.15;2.30;;;9.00;99.90;;;;;;5013243;28;20054;-85
2022/09/18 02:10:32;;;;;;;15.20;3.10;;;9.00;99.90;;;;;;5013289;28;20055;-86
2022/09/18 02:13:00;;;;;;;12.30;2.15;;;9.00;99.90;;;;;;5013584;28;20065;-86
2022/09/18 02:15:29;;;;;;;12.13;2.40;;;8.90;99.90;;;;;;5014123;28;20052;-86
2022/09/18 02:18:03;;;;;;;8.90;2.30;;;8.90;99.90;;;;;;5013017;28;20405;-86
2022/09/18 02:20:33;;;;;;;11.75;2.30;;;8.90;99.90;;;;;;5012872;28;20137;-86
2022/09/18 02:23:04;;;;;;;10.88;2.13;;;9.00;99.90;;;;;;5014087;28;20045;-86
2022/09/18 02:26:07;;;;;;;10.82;2.38;;;9.00;99.90;;;;;;5013171;28;20107;-86
2022/09/18 02:28:35;;;;;;;11.98;2.55;;;9.00;99.90;;;;;;4937788;29;20119;-85
2022/09/18 02:31:01;;;;;;;13.80;2.85;;;9.00;99.90;;;;;;4998059;28;20049;-86
2022/09/18 02:33:30;;;;;;;14.70;3.30;;;9.00;99.90;;;;;;4996477;28;20508;-86
2022/09/18 02:36:28;;;;;;;14.15;2.35;;;9.00;99.90;;;;;;4996242;28;20149;-86
2022/09/18 02:39:06;;;;;;;14.10;2.60;;;9.10;99.90;;;;;;4972059;28;20492;-86
2022/09/18 02:41:39;;;;;;;11.57;1.90;;;9.10;99.90;;;;;;4997029;28;20466;-86
2022/09/18 02:44:55;;;;;;;10.10;2.45;;;9.10;99.90;;;;;;5012908;28;20095;-86
2022/09/18 02:47:45;;;;;;;13.05;2.58;;;9.10;99.90;;;;;;4921560;29;20043;-86
2022/09/18 02:50:41;;;;;;;14.90;2.85;;;9.10;99.90;;;;;;5009080;28;20092;-86
2022/09/18 02:53:32;;;;;;;18.23;3.53;;;9.10;99.90;;;;;;4995506;28;20063;-86
2022/09/18 02:56:03;;;;;;;14.30;3.40;;;9.20;99.90;;;;;;4996122;28;20050;-86
2022/09/18 02:58:33;;;;;;;18.55;2.95;;;9.30;99.90;;;;;;5013424;28;20428;-86
2022/09/18 03:01:02;;;;;;;14.23;2.90;;;9.40;99.90;;;;;;5012671;28;20089;-85
2022/09/18 03:03:32;;;;;;;18.20;3.70;;;9.40;99.90;;;;;;5012652;28;20057;-86
2022/09/18 03:05:58;;;;;;;15.80;3.47;;;9.50;99.90;;;;;;4996322;28;20054;-86
2022/09/18 03:08:24;;;;;;;14.27;3.72;;;9.40;99.90;;;;;;5013492;28;20065;-86
2022/09/18 03:10:49;;;;;;;20.35;4.10;;;9.40;99.90;;;;;;5012460;28;20038;-86
2022/09/18 03:13:15;;;;;;;12.98;2.83;;;9.40;99.90;;;;;;4999270;28;20084;-86
2022/09/18 03:15:41;;;;;;;14.95;2.75;;;9.40;99.90;;;;;;5000175;28;20046;-86
2022/09/18 03:18:07;;;;;;;15.07;3.25;;;9.40;99.90;;;;;;5016311;28;20045;-86
2022/09/18 03:20:33;;;;;;;13.60;2.50;;;9.40;99.90;;;;;;5017144;28;20108;-86
2022/09/18 03:22:58;;;;;;;11.73;2.88;;;9.40;99.90;;;;;;5000179;28;20469;-86
2022/09/18 03:25:24;;;;;;;14.32;2.85;;;9.50;99.90;;;;;;5000633;28;20048;-87
2022/09/18 03:27:54;;;;;;;11.85;2.83;;;9.50;99.90;;;;;;4999996;28;20128;-87
2022/09/18 03:30:23;;;;;;;14.93;2.80;;;9.50;99.90;;;;;;4999534;28;20052;-88
2022/09/18 03:32:49;;;;;;;12.63;2.38;;;9.50;99.90;;;;;;4984611;28;20112;-87
2022/09/18 03:35:15;;;;;;;14.27;2.60;;;9.70;99.90;;;;;;5000546;28;20053;-87
2022/09/18 03:37:41;;;;;;;12.95;2.80;;;9.50;99.90;;;;;;5000037;28;20053;-88
2022/09/18 03:40:10;;;;;;;13.30;2.20;;;9.50;99.90;;;;;;5016124;28;20454;-88
2022/09/18 03:42:36;;;;;;;12.65;2.28;;;9.60;99.90;;;;;;5017480;28;20080;-87
2022/09/18 03:45:02;;;;;;;12.57;2.70;;;9.60;99.90;;;;;;5016023;28;20052;-87
2022/09/18 03:47:28;;;;;;;14.00;2.28;;;9.50;99.90;;;;;;5015610;28;20504;-87
2022/09/18 03:49:54;;;;;;;10.02;2.38;;;9.50;99.90;;;;;;5015709;28;20041;-87
2022/09/18 03:52:20;;;;;;;11.00;2.33;;;9.60;99.90;;;;;;4999695;28;20045;-87
2022/09/18 03:54:46;;;;;;;10.02;2.30;;;9.50;99.90;;;;;;5015490;28;20548;-88
2022/09/18 03:57:12;;;;;;;9.30;2.30;;;9.50;99.90;;;;;;4999470;28;20041;-87
2022/09/18 03:59:38;;;;;;;11.50;2.17;;;9.60;99.90;;;;;;5015743;28;20050;-87
2022/09/18 04:02:03;;;;;;;11.30;2.20;;;9.50;99.90;;;;;;4999247;28;20048;-87
2022/09/18 04:04:29;;;;;;;12.30;2.80;;;9.50;99.90;;;;;;5016319;28;20374;-87
2022/09/18 04:06:55;;;;;;;7.22;1.77;;;9.70;99.90;;;;;;5015519;28;20489;-87
2022/09/18 04:09:20;;;;;;;10.85;2.30;;;9.70;99.90;;;;;;4999101;28;20042;-87
2022/09/18 04:11:46;;;;;;;10.20;2.20;;;9.50;99.90;;;;;;5016995;28;20129;-87
2022/09/18 04:14:13;;;;;;;12.02;2.25;;;9.50;99.90;;;;;;5015358;28;20413;-87
2022/09/18 04:16:39;;;;;;;11.32;2.65;;;9.40;99.90;;;;;;5016974;28;20057;-88
2022/09/18 04:19:04;;;;;;;11.85;2.45;;;9.40;99.90;;;;;;4982560;28;20383;-88
2022/09/18 04:21:31;;;;;;;8.88;1.90;;;9.80;99.90;;;;;;5016099;28;20152;-88
2022/09/18 04:23:57;;;;;;;12.65;2.45;;;9.40;99.90;;;;;;5015596;28;20127;-88
2022/09/18 04:26:25;;;;;;;11.88;2.10;;;9.40;99.90;;;;;;5016150;28;20046;-87
2022/09/18 04:28:51;;;;;;;9.93;2.40;;;9.50;99.90;;;;;;5015924;28;20057;-87
2022/09/18 04:31:17;;;;;;;10.52;2.17;;;9.40;99.90;;;;;;5015080;28;20046;-87
2022/09/18 04:33:45;;;;;;;13.05;2.53;;;9.80;99.90;;;;;;5014792;28;20096;-87
2022/09/18 04:36:11;;;;;;;13.05;2.38;;;9.40;99.90;;;;;;4999481;28;20050;-87
2022/09/18 04:38:39;;;;;;;8.32;2.15;;;9.60;99.90;;;;;;4998397;28;20042;-88
2022/09/18 04:41:05;;;;;;;6.38;1.77;;;9.60;99.90;;;;;;5015118;28;20393;-87
2022/09/18 04:43:32;;;;;;;9.65;1.98;;;9.30;99.90;;;;;;5014972;28;20046;-87
2022/09/18 04:46:01;;;;;;;9.73;1.90;;;9.30;99.90;;;;;;4998536;28;20095;-87
2022/09/18 04:48:29;;;;;;;11.75;1.80;;;9.30;99.90;;;;;;4998434;28;20104;-88
2022/09/18 04:50:55;;;;;;;10.00;1.90;;;9.30;99.90;;;;;;5015123;28;20045;-86
2022/09/18 04:53:20;;;;;;;11.30;1.80;;;9.40;99.90;;;;;;5015521;28;20381;-88
2022/09/18 04:55:47;;;;;;;13.00;2.00;;;9.70;99.90;;;;;;5014148;28;20057;-87
2022/09/18 04:58:15;;;;;;;9.05;1.70;;;9.40;99.90;;;;;;4998067;28;20050;-87
2022/09/18 05:00:41;;;;;;;10.43;2.00;;;9.40;99.90;;;;;;5014549;28;20056;-86
2022/09/18 05:03:07;;;;;;;11.43;1.88;;;9.60;99.90;;;;;;5015870;28;20045;-88
2022/09/18 05:05:34;;;;;;;8.38;2.10;;;9.50;99.90;;;;;;4998041;28;20440;-87
2022/09/18 05:08:01;;;;;;;10.52;2.42;;;9.40;99.90;;;;;;5014355;28;20057;-87
2022/09/18 05:10:27;;;;;;;12.68;2.33;;;9.30;99.90;;;;;;4997891;28;20417;-87
2022/09/18 05:12:53;;;;;;;13.55;2.30;;;9.40;99.90;;;;;;4998156;28;20046;-87
2022/09/18 05:15:20;;;;;;;11.38;2.60;;;9.40;99.90;;;;;;5014389;28;20050;-87
2022/09/18 05:17:46;;;;;;;12.80;2.17;;;9.70;99.90;;;;;;4998871;28;20085;-86
2022/09/18 05:20:12;;;;;;;9.25;1.90;;;9.50;99.90;;;;;;5013833;28;20104;-87
2022/09/18 05:22:42;;;;;;;11.02;2.20;;;9.40;99.90;;;;;;5014256;28;20053;-86
2022/09/18 05:25:08;;;;;;;16.17;2.40;;;9.40;99.90;;;;;;4997701;28;20133;-89
2022/09/18 05:27:34;;;;;;;12.40;2.75;;;9.80;99.90;;;;;;4998040;28;20086;-88
2022/09/18 05:30:07;;;;;;;11.68;2.20;;;9.40;99.90;;;;;;5013347;28;20512;-87
2022/09/18 05:32:33;;;;;;;6.45;1.67;;;9.50;99.90;;;;;;4998567;28;20053;-88
2022/09/18 05:34:59;;;;;;;9.05;1.70;;;9.50;99.90;;;;;;5012948;28;20061;-88
2022/09/18 05:37:25;;;;;;;7.20;1.92;;;9.80;99.90;;;;;;5013373;28;20177;-88
2022/09/18 05:39:53;;;;;;;7.13;1.63;;;9.50;99.90;;;;;;5013775;28;20497;-88
2022/09/18 05:42:19;;;;;;;7.88;2.08;;;9.50;99.90;;;;;;5014450;28;20119;-87
2022/09/18 05:44:44;;;;;;;9.30;2.05;;;9.60;99.90;;;;;;5014631;28;20136;-88
2022/09/18 05:47:10;;;;;;;8.65;2.17;;;9.60;99.90;;;;;;5013098;28;20038;-87
2022/09/18 05:49:36;;;;;;;6.13;1.73;;;9.60;99.90;;;;;;5013839;28;20038;-87
2022/09/18 05:52:04;;;;;;;8.30;2.13;;;9.60;99.90;;;;;;4997312;28;20104;-88
2022/09/18 05:54:29;;;;;;;12.35;2.45;;;9.50;99.90;;;;;;4997227;28;20221;-87
2022/09/18 05:56:58;;;;;;;7.00;2.58;;;9.50;99.90;;;;;;5013578;28;20149;-87
2022/09/18 05:59:24;;;;;;;14.65;1.88;;;10.00;99.90;;;;;;4998140;28;20100;-87
2022/09/18 06:01:49;;;;;;;13.57;2.30;;;9.60;99.90;;;;;;4996829;28;20088;-89
2022/09/18 06:04:15;;;;;;;10.05;2.00;;;9.60;99.90;;;;;;4997167;28;20073;-87
2022/09/18 06:06:44;;;;;;;9.13;2.30;;;9.60;99.90;;;;;;5013280;28;20048;-87
2022/09/18 06:09:09;;;;;;;13.65;2.40;;;10.00;99.90;;;;;;5013336;28;20129;-86
2022/09/18 06:11:35;;;;;;;18.60;2.45;;;10.10;99.90;;;;;;5013268;28;20045;-86
2022/09/18 06:14:01;;;;;;;13.82;3.03;;;9.70;99.90;;;;;;4996941;28;20132;-87
2022/09/18 06:16:27;;;;;;;13.10;2.70;;;9.70;99.90;;;;;;5013311;28;20072;-89
2022/09/18 06:18:53;;;;;;;11.10;2.25;;;10.10;99.90;;;;;;5014952;28;20489;-87
2022/09/18 06:21:18;;;;;;;9.32;2.03;;;9.80;99.90;;;;;;4980925;28;20085;-87
2022/09/18 06:23:44;;;;;;;14.48;2.33;;;9.80;99.90;;;;;;5014002;28;20049;-88
2022/09/18 06:26:12;;;;;;;11.05;2.10;;;9.80;99.90;;;;;;4996848;28;20504;-88
2022/09/18 06:28:38;;;;;;;9.00;1.98;;;9.90;99.90;;;;;;4996858;28;20050;-87
2022/09/18 06:31:07;;;;;;;11.07;2.10;;;9.90;99.90;;;;;;5012762;28;20041;-88
2022/09/18 06:33:34;;;;;;;9.90;1.80;;;9.90;99.90;;;;;;5012502;28;20147;-87
2022/09/18 06:36:05;;;;;;;10.80;2.53;;;10.00;99.90;;;;;;5013196;28;20485;-88
2022/09/18 06:38:31;;;;;;;10.48;2.30;;;10.00;99.90;;;;;;5013301;28;20056;-87
2022/09/18 06:41:00;;;;;;;14.40;2.95;;;10.00;99.90;;;;;;5012893;28;20508;-87
2022/09/18 06:43:26;;;;;;;10.65;2.72;;;10.00;99.90;;;;;;4997403;28;20062;-88
2022/09/18 06:45:53;;;;;;;13.57;2.58;;;10.00;99.90;;;;;;5012800;28;20540;-87
2022/09/18 06:48:19;;;;;;;14.35;2.45;;;10.20;99.90;;;;;;5012661;28;20044;-86
2022/09/18 06:51:00;;;;;;;13.30;2.70;;;10.00;99.90;;;;;;5014228;28;20468;-87
2022/09/18 06:53:30;;;;;;;7.88;1.95;;;10.10;99.90;;;;;;5013161;28;20133;-88
2022/09/18 06:56:00;;;;;;;13.50;2.53;;;10.10;99.90;;;;;;5013716;28;20096;-87
2022/09/18 06:58:26;;;;;;;11.65;2.40;;;10.10;99.90;;;;;;5012696;28;20125;-87
2022/09/18 07:00:52;;;;;;;14.25;2.30;;;10.20;99.90;;;;;;5012489;28;20125;-87
2022/09/18 07:03:18;;;;;;;10.93;2.03;;;10.20;99.90;;;;;;5012645;28;20077;-88
2022/09/18 07:05:46;;;;;;;19.35;2.53;;;10.20;99.90;;;;;;4996407;28;20056;-87
2022/09/18 07:08:12;;;;;;;12.50;2.58;;;10.30;99.90;;;;;;5012698;28;20436;-87
2022/09/18 07:10:41;;;;;;;12.32;2.45;;;10.40;99.90;;;;;;5012946;28;20375;-88
2022/09/18 07:13:10;;;;;;;11.23;2.05;;;10.30;99.90;;;;;;4996524;28;20108;-87
2022/09/18 07:15:38;;;;;;;9.32;1.98;;;10.30;99.90;;;;;;4996423;28;20034;-87
2022/09/18 07:18:08;;;;;;;12.10;2.10;;;10.20;99.90;;;;;;4996126;28;20076;-88
2022/09/18 07:20:36;;;;;;;9.20;2.10;;;10.20;99.90;;;;;;5012516;28;20042;-89
2022/09/18 07:23:02;;;;;;;9.98;2.38;;;10.20;99.90;;;;;;4996040;28;20050;-89
2022/09/18 07:25:30;;;;;;;9.48;2.10;;;10.30;99.90;;;;;;5013023;28;20149;-87
2022/09/18 07:28:06;;;;;;;14.75;2.17;;;10.30;99.90;;;;;;5011828;28;20050;-87
2022/09/18 07:30:35;;;;;;;12.38;2.05;;;10.20;99.90;;;;;;4995398;28;20038;-87
2022/09/18 07:33:02;;;;;;;12.65;2.35;;;10.20;99.90;;;;;;5012104;28;20042;-89
2022/09/18 07:35:28;;;;;;;10.77;2.10;;;10.20;99.90;;;;;;4979264;28;20543;-88
2022/09/18 07:38:01;;;;;;;12.63;2.50;;;10.50;99.90;;;;;;5012246;28;20054;-89
2022/09/18 07:40:31;;;;;;;14.30;2.78;;;10.20;99.90;;;;;;4995994;28;20125;-90
2022/09/18 07:43:15;;;;;;;14.50;2.70;;;10.70;99.90;;;;;;4996919;28;20377;-87
2022/09/18 07:45:43;;;;;;;10.98;2.47;;;10.40;99.90;;;;;;4996254;28;20078;-88
2022/09/18 07:48:09;;;;;;;11.82;2.28;;;10.20;99.90;;;;;;5012673;28;20057;-88
2022/09/18 07:50:37;;;;;;;11.82;2.47;;;10.20;99.90;;;;;;4996022;28;20441;-90
2022/09/18 07:53:11;;;;;;;13.20;2.33;;;10.20;99.90;;;;;;5012714;28;20050;-89
2022/09/18 07:55:36;;;;;;;15.45;2.95;;;10.10;99.90;;;;;;5011861;28;20378;-89
2022/09/18 07:58:05;;;;;;;12.75;2.28;;;10.10;99.90;;;;;;5012453;28;20049;-89
2022/09/18 08:00:34;;;;;;;10.95;2.28;;;10.10;99.90;;;;;;5015312;28;20050;-88
2022/09/18 08:03:05;;;;;;;14.43;2.35;;;10.10;99.90;;;;;;5015591;28;20053;-88
2022/09/18 08:05:31;;;;;;;10.77;2.35;;;10.20;99.90;;;;;;5016220;28;20060;-89
2022/09/18 08:08:04;;;;;;;10.15;2.30;;;10.10;99.90;;;;;;5015458;28;20075;-88
2022/09/18 08:10:30;;;;;;;11.65;2.65;;;10.40;99.90;;;;;;4999695;28;20053;-91
2022/09/18 08:13:08;;;;;;;;;;;;;;;;;;;;;
2022/09/18 08:15:39;;;;;;;12.07;2.42;;;10.20;99.90;;;;;;5015947;28;20042;-90
2022/09/18 08:18:07;;;;;;;10.85;2.10;;;10.20;99.90;;;;;;4999517;28;20041;-92
2022/09/18 08:20:53;;;;;;;12.27;2.47;;;10.20;99.90;;;;;;5000110;28;20477;-93
2022/09/18 08:23:24;;;;;;;12.63;2.28;;;10.20;99.90;;;;;;5015597;28;20042;-91
2022/09/18 08:25:50;;;;;;;11.18;2.15;;;10.20;99.90;;;;;;4999614;28;20042;-89
2022/09/18 08:28:16;;;;;;;8.45;2.05;;;10.50;99.90;;;;;;4999267;28;20057;-88
2022/09/18 08:30:51;;;;;;;12.65;2.30;;;10.20;99.90;;;;;;4998211;28;20038;-92
2022/09/18 08:33:22;;;;;;;11.60;2.33;;;10.20;99.90;;;;;;5015085;28;20545;-91
2022/09/18 08:36:06;;;;;;;12.10;2.30;;;10.10;99.90;;;;;;5014857;28;20053;-88
2022/09/18 08:38:32;;;;;;;8.63;1.98;;;10.20;99.90;;;;;;5015475;28;20354;-92
2022/09/18 08:41:39;;;;;;;9.77;1.92;;;10.20;99.90;;;;;;4999294;28;20129;-90
2022/09/18 08:44:15;;;;;;;11.32;2.17;;;10.20;99.90;;;;;;4939321;29;20058;-88
2022/09/18 08:47:01;;;;;;;8.30;1.85;;;10.20;99.90;;;;;;4943064;29;20083;-90
2022/09/18 08:49:42;;;;;;;10.90;2.22;;;10.20;99.90;;;;;;5000180;28;20116;-92
2022/09/18 08:52:30;;;;;;;6.63;1.50;;;10.10;99.90;;;;;;5015958;28;20057;-93
2022/09/18 08:55:10;;;;;;;8.55;2.10;;;10.20;99.90;;;;;;5016406;28;20060;-91
2022/09/18 08:57:44;;;;;;;6.72;1.55;;;10.20;99.90;;;;;;5016005;28;20053;-91
2022/09/18 09:00:29;;;;;;;10.45;2.20;;;10.30;99.90;;;;;;4999939;28;20064;-91
2022/09/18 09:03:15;;;;;;;12.40;2.00;;;10.20;99.90;;;;;;4998556;28;20058;-91
2022/09/18 09:06:33;;;;;;;6.18;1.67;;;10.20;99.90;;;;;;5015555;28;20038;-90
2022/09/18 09:09:24;;;;;;;9.02;1.80;;;10.20;99.90;;;;;;4974900;28;20105;-90
2022/09/18 09:12:23;;;;;;;6.47;1.60;;;10.20;99.90;;;;;;4998627;28;20184;-90
2022/09/18 09:15:38;;;;;;;9.95;2.17;;;10.20;99.90;;;;;;5014896;28;20053;-90
2022/09/18 09:18:18;;;;;;;10.18;1.77;;;10.20;99.90;;;;;;4957622;29;20051;-95
2022/09/18 09:20:52;;;;;;;8.82;2.10;;;10.00;99.90;;;;;;5011547;28;20060;-94
2022/09/18 09:23:26;;;;;;;7.55;1.95;;;10.30;99.90;;;;;;4998492;28;20136;-94
2022/09/18 09:26:27;;;;;;;11.15;3.05;;;10.20;99.90;;;;;;4999121;28;20496;-92
2022/09/18 09:29:05;;;;;;;10.10;2.75;;;10.40;99.90;;;;;;5015226;28;20042;-93
2022/09/18 09:42:50;;;;;;;14.75;2.25;;;10.00;99.90;;;;;;5094657;28;20130;-86
2022/09/18 09:45:31;;;;;;;10.40;2.22;;;10.10;99.90;;;;;;5057490;28;20044;-94
2022/09/18 09:48:50;;;;;;;7.68;2.03;;;10.10;99.90;;;;;;5061355;28;20193;-91
2022/09/18 09:58:58;;;;;;;7.88;1.95;;;10.30;99.90;;;;;;5281230;22;20512;-87
2022/09/18 10:01:43;;;;;;;10.40;2.33;;;10.30;99.90;;;;;;5018467;28;20202;-88
2022/09/18 10:04:47;;;;;;;8.65;2.13;;;10.40;99.90;;;;;;5023788;28;20125;-89
2022/09/18 10:07:26;;;;;;;;;;;10.40;99.90;;;;;;5019997;28;20102;-93
2022/09/18 10:10:05;;;;;;;10.45;2.63;;;10.50;99.90;;;;;;5019348;28;20350;-89
2022/09/18 10:13:25;;;;;;;12.10;2.40;;;10.40;99.90;;;;;;5053973;28;20053;-91
2022/09/18 10:26:14;;;;;;;12.85;2.40;;;10.60;99.90;;;;;;5084634;28;20334;-88
2022/09/18 10:28:40;;;;;;;11.35;2.22;;;10.60;99.90;;;;;;5062188;28;20498;-92
2022/09/18 10:31:09;;;;;;;11.25;1.98;;;10.70;99.90;;;;;;5058914;28;20044;-90
2022/09/18 10:33:39;;;;;;;11.00;2.67;;;10.70;99.90;;;;;;5058884;28;20051;-90
2022/09/18 10:36:39;;;;;;;11.63;2.08;;;10.70;99.90;;;;;;5076241;28;20052;-91
2022/09/18 10:39:44;;;;;;;14.63;2.78;;;10.80;99.90;;;;;;5059686;28;20126;-93
2022/09/18 10:42:15;;;;;;;11.10;2.22;;;10.90;99.90;;;;;;5056033;28;20063;-91
2022/09/18 10:44:52;;;;;;;12.10;2.50;;;11.00;99.90;;;;;;5059806;28;20130;-90
2022/09/18 10:47:27;;;;;;;15.88;3.35;;;11.10;99.90;;;;;;5059766;28;20561;-93
2022/09/18 10:50:01;;;;;;;13.10;2.78;;;11.10;99.90;;;;;;5059079;28;20058;-90
2022/09/18 10:52:41;;;;;;;12.90;2.50;;;11.20;99.90;;;;;;5076474;28;20040;-89
2022/09/18 10:55:14;;;;;;;15.10;2.45;;;11.10;99.90;;;;;;5059804;28;20044;-92
2022/09/18 10:58:26;;;;;;;11.02;2.53;;;11.30;99.90;;;;;;5076686;28;20040;-91
2022/09/18 11:01:06;;;;;;;11.98;3.17;;;11.40;99.90;;;;;;5055010;28;20048;-93
2022/09/18 11:04:00;;;;;;;15.13;3.00;;;11.60;99.90;;;;;;5058891;28;20074;-90
2022/09/18 11:06:32;;;;;;;12.95;2.40;;;11.70;99.90;;;;;;5060109;28;20044;-91
2022/09/18 11:09:17;;;;;;;13.40;2.60;;;11.90;99.90;;;;;;5076645;28;20463;-94
2022/09/18 11:11:50;;;;;;;15.48;2.88;;;12.00;99.90;;;;;;5060308;28;20044;-93
2022/09/18 11:14:22;;;;;;;16.52;2.97;;;12.00;99.90;;;;;;5060513;28;20044;-94
2022/09/18 11:16:55;;;;;;;10.18;3.00;;;11.90;99.90;;;;;;5059080;28;20097;-90
2022/09/18 11:19:49;;;;;;;;;;;;;;;;;;;;;
2022/09/18 11:22:40;;;;;;;13.00;2.72;;;12.20;99.90;;;;;;5076400;28;20044;-88
2022/09/18 11:25:20;;;;;;;16.42;2.95;;;12.20;99.90;;;;;;5074802;28;20055;-88
2022/09/18 11:27:52;;;;;;;12.40;2.63;;;12.20;99.90;;;;;;5075460;28;20044;-88
2022/09/18 11:30:41;;;;;;;14.80;3.33;;;12.30;99.90;;;;;;5074990;28;20484;-88
2022/09/18 11:33:25;;;;;;;14.30;2.65;;;12.40;99.90;;;;;;5059453;28;20472;-89
2022/09/18 11:35:58;;;;;;;11.80;2.70;;;12.50;99.90;;;;;;5062874;28;20379;-87
2022/09/18 11:38:26;;;;;;;10.38;2.50;;;12.50;99.90;;;;;;5062007;28;20086;-87
2022/09/18 11:40:58;;;;;;;15.38;2.55;;;12.60;99.90;;;;;;5062242;28;20048;-87
2022/09/18 11:43:37;;;;;;;13.52;2.80;;;12.70;99.90;;;;;;5062988;28;20052;-88
2022/09/18 11:46:21;;;;;;;11.95;2.30;;;12.70;99.90;;;;;;5079683;28;20059;-88
2022/09/18 11:49:26;;;;;;;12.73;2.40;;;12.80;99.90;;;;;;5062150;28;20055;-88
2022/09/18 11:52:04;;;;;;;13.15;2.53;;;12.80;99.90;;;;;;5038983;28;20059;-90
2022/09/18 11:54:34;;;;;;;13.20;2.33;;;12.90;99.90;;;;;;5062808;28;20055;-89
2022/09/18 11:57:03;;;;;;;14.00;3.47;;;13.00;99.90;;;;;;5078755;28;20047;-89
2022/09/18 11:59:41;;;;;;;13.48;3.10;;;13.20;99.90;;;;;;5061975;28;20050;-89
2022/09/18 12:02:31;;;;;;;14.65;2.53;;;13.00;99.90;;;;;;5079537;28;20074;-90
2022/09/18 12:05:14;;;;;;;9.07;2.13;;;13.10;99.90;;;;;;5062868;28;20071;-90
2022/09/18 12:08:07;;;;;;;11.20;2.15;;;13.20;99.90;;;;;;5062363;28;20461;-88
2022/09/18 12:11:04;;;;;;;13.38;2.30;;;13.20;99.90;;;;;;5061460;28;20040;-89
2022/09/18 12:14:33;;;;;;;;;;;;;;;;;;;;;
2022/09/18 12:17:47;;;;;;;;;;;;;;;;;;;;;
2022/09/18 12:20:43;;;;;;;12.23;2.50;;;13.20;99.90;;;;;;5056145;28;20085;-92
2022/09/18 12:23:54;;;;;;;9.07;2.00;;;13.30;99.90;;;;;;5062066;28;20050;-91
2022/09/18 12:26:27;;;;;;;11.20;3.17;;;13.30;99.90;;;;;;5053919;28;20056;-90
2022/09/18 12:29:09;;;;;;;7.97;1.70;;;13.30;99.90;;;;;;5079034;28;20372;-89
2022/09/18 12:31:58;;;;;;;11.10;2.53;;;13.40;99.90;;;;;;5078515;28;20105;-90
2022/09/18 12:34:34;;;;;;;14.35;2.67;;;13.50;99.90;;;;;;5061178;28;20051;-88
2022/09/18 12:37:12;;;;;;;11.23;2.15;;;13.50;99.90;;;;;;5078206;28;20523;-88
2022/09/18 12:39:50;;;;;;;10.05;2.45;;;13.40;99.90;;;;;;5078060;28;20052;-88
2022/09/18 12:42:34;;;;;;;11.45;2.30;;;13.30;99.90;;;;;;5062173;28;20052;-88
2022/09/18 12:45:22;;;;;;;8.93;2.03;;;13.40;99.90;;;;;;5060463;28;20052;-87
2022/09/18 12:48:21;;;;;;;8.43;1.92;;;13.50;99.90;;;;;;5061501;28;20044;-88
2022/09/18 12:51:15;;;;;;;8.75;1.90;;;13.50;99.90;;;;;;5061727;28;20120;-89
2022/09/18 12:54:17;;;;;;;11.73;1.95;;;13.40;99.90;;;;;;5077948;28;20043;-90
2022/09/18 12:57:08;;;;;;;9.07;1.90;;;13.50;99.90;;;;;;5077752;28;20391;-89
2022/09/18 13:00:07;;;;;;;13.02;2.20;;;13.60;99.90;;;;;;5061946;28;20379;-87
2022/09/18 13:03:00;;;;;;;9.68;1.67;;;13.50;99.90;;;;;;5078587;28;20101;-88
2022/09/18 13:05:47;;;;;;;11.23;1.88;;;13.70;99.90;;;;;;5060811;28;20477;-87
2022/09/18 13:08:15;;;;;;;8.45;1.90;;;13.70;99.90;;;;;;5078320;28;20487;-90
2022/09/18 13:10:44;;;;;;;8.23;1.52;;;13.70;99.90;;;;;;5077084;28;20066;-88
2022/09/18 13:13:39;;;;;;;7.82;1.83;;;13.70;99.90;;;;;;5061517;28;20056;-88
2022/09/18 13:16:14;;;;;;;8.98;1.60;;;13.70;99.90;;;;;;5061402;28;20044;-89
2022/09/18 13:18:53;;;;;;;11.55;2.03;;;13.70;99.90;;;;;;5060951;28;20326;-88
2022/09/18 13:21:41;;;;;;;7.60;1.80;;;13.70;99.90;;;;;;5060522;28;20087;-88
2022/09/18 13:24:14;;;;;;;15.48;2.35;;;13.80;99.90;;;;;;5060980;28;20105;-89
2022/09/18 13:26:49;;;;;;;8.15;1.73;;;13.80;99.90;;;;;;5060349;28;20156;-89
2022/09/18 13:29:47;;;;;;;6.47;1.92;;;13.80;99.90;;;;;;5060472;28;20042;-88
2022/09/18 13:32:20;;;;;;;7.47;1.73;;;13.70;99.90;;;;;;5076967;28;20130;-86
2022/09/18 13:34:59;;;;;;;9.73;2.15;;;13.50;99.90;;;;;;5076457;28;20050;-86
2022/09/18 13:37:31;;;;;;;10.52;2.10;;;13.40;99.90;;;;;;5077602;28;20051;-89
2022/09/18 13:40:34;;;;;;;8.07;2.10;;;13.10;99.90;;;;;;5076566;28;20501;-86
2022/09/18 13:43:19;;;;;;;12.02;2.15;;;12.90;99.90;;;;;;5076430;28;20052;-87
2022/09/18 13:45:45;;;;;;;8.63;2.55;;;12.80;99.90;;;;;;5060126;28;20067;-88
2022/09/18 13:48:13;;;;;;;7.18;2.17;;;12.60;99.90;;;;;;5059713;28;20044;-88
2022/09/18 13:50:54;;;;;;;13.00;2.88;;;12.60;99.90;;;;;;5059155;28;20079;-87
2022/09/18 13:54:07;;;;;;;11.85;2.80;;;12.60;99.90;;;;;;5044022;28;20052;-88
2022/09/18 13:57:02;;;;;;;8.02;2.00;;;12.60;99.90;;;;;;5058754;28;20110;-88